sensor_id;sensor_type;location;lat;lon;timestamp;P1;durP1;ratioP1;P2;durP2;ratioP2
13991;SDS011;7070;53.586;9.692;2023-07-16T00:00:40;1.27;;;1.00;;
13991;SDS011;7070;53.586;9.692;2023-07-16T00:03:07;2.47;;;1.27;;
13991;SDS011;7070;53.586;9.692;2023-07-16T00:05:36;4.00;;;1.23;;
13991;SDS011;7070;53.586;9.692;2023-07-16T00:08:05;2.33;;;1.20;;
13991;SDS011;7070;53.586;9.692;2023-07-16T00:10:33;4.53;;;1.30;;
13991;SDS011;7070;53.586;9.692;2023-07-16T00:13:00;3.07;;;1.63;;
13991;SDS011;7070;53.586;9.692;2023-07-16T00:15:27;1.27;;;1.00;;
13991;SDS011;7070;53.586;9.692;2023-07-16T00:17:54;3.03;;;1.20;;
13991;SDS011;7070;53.586;9.692;2023-07-16T00:20:21;3.20;;;1.13;;
13991;SDS011;7070;53.586;9.692;2023-07-16T00:22:49;1.47;;;1.10;;
13991;SDS011;7070;53.586;9.692;2023-07-16T00:25:17;1.03;;;0.93;;
13991;SDS011;7070;53.586;9.692;2023-07-16T00:27:44;4.50;;;1.60;;
13991;SDS011;7070;53.586;9.692;2023-07-16T00:30:10;3.70;;;1.53;;
13991;SDS011;7070;53.586;9.692;2023-07-16T00:32:38;3.23;;;1.33;;
13991;SDS011;7070;53.586;9.692;2023-07-16T00:35:05;3.03;;;1.30;;
13991;SDS011;7070;53.586;9.692;2023-07-16T00:37:33;2.13;;;1.17;;
13991;SDS011;7070;53.586;9.692;2023-07-16T00:40:00;3.33;;;1.67;;
13991;SDS011;7070;53.586;9.692;2023-07-16T00:42:28;1.90;;;1.37;;
13991;SDS011;7070;53.586;9.692;2023-07-16T00:44:55;1.40;;;1.20;;
13991;SDS011;7070;53.586;9.692;2023-07-16T00:47:22;7.80;;;1.57;;
13991;SDS011;7070;53.586;9.692;2023-07-16T00:49:49;3.93;;;1.50;;
13991;SDS011;7070;53.586;9.692;2023-07-16T00:52:17;3.73;;;1.40;;
13991;SDS011;7070;53.586;9.692;2023-07-16T00:54:44;2.20;;;1.43;;
13991;SDS011;7070;53.586;9.692;2023-07-16T00:57:11;1.53;;;1.10;;
13991;SDS011;7070;53.586;9.692;2023-07-16T00:59:40;3.00;;;1.33;;
13991;SDS011;7070;53.586;9.692;2023-07-16T01:02:06;3.20;;;1.30;;
13991;SDS011;7070;53.586;9.692;2023-07-16T01:04:33;1.63;;;1.20;;
13991;SDS011;7070;53.586;9.692;2023-07-16T01:07:01;2.53;;;1.50;;
13991;SDS011;7070;53.586;9.692;2023-07-16T01:09:32;1.67;;;1.23;;
13991;SDS011;7070;53.586;9.692;2023-07-16T01:12:02;4.03;;;1.30;;
13991;SDS011;7070;53.586;9.692;2023-07-16T01:14:31;1.97;;;1.43;;
13991;SDS011;7070;53.586;9.692;2023-07-16T01:16:59;2.63;;;1.50;;
13991;SDS011;7070;53.586;9.692;2023-07-16T01:19:29;4.20;;;1.23;;
13991;SDS011;7070;53.586;9.692;2023-07-16T01:21:57;2.03;;;1.43;;
13991;SDS011;7070;53.586;9.692;2023-07-16T01:27:34;1.40;;;1.10;;
13991;SDS011;7070;53.586;9.692;2023-07-16T01:30:20;2.67;;;1.53;;
13991;SDS011;7070;53.586;9.692;2023-07-16T01:32:47;2.53;;;1.27;;
13991;SDS011;7070;53.586;9.692;2023-07-16T01:35:15;2.80;;;1.40;;
13991;SDS011;7070;53.586;9.692;2023-07-16T01:37:43;3.33;;;1.30;;
13991;SDS011;7070;53.586;9.692;2023-07-16T01:40:10;2.70;;;1.33;;
13991;SDS011;7070;53.586;9.692;2023-07-16T01:42:37;3.57;;;1.33;;
13991;SDS011;7070;53.586;9.692;2023-07-16T01:45:04;2.80;;;1.10;;
13991;SDS011;7070;53.586;9.692;2023-07-16T01:47:40;3.07;;;1.43;;
13991;SDS011;7070;53.586;9.692;2023-07-16T01:50:16;3.83;;;1.47;;
13991;SDS011;7070;53.586;9.692;2023-07-16T01:52:43;1.93;;;1.50;;
13991;SDS011;7070;53.586;9.692;2023-07-16T01:55:10;2.47;;;1.13;;
13991;SDS011;7070;53.586;9.692;2023-07-16T01:57:36;4.43;;;1.63;;
13991;SDS011;7070;53.586;9.692;2023-07-16T02:00:03;1.67;;;1.23;;
13991;SDS011;7070;53.586;9.692;2023-07-16T02:02:33;3.47;;;1.30;;
13991;SDS011;7070;53.586;9.692;2023-07-16T02:05:01;3.63;;;1.40;;
13991;SDS011;7070;53.586;9.692;2023-07-16T02:07:28;2.57;;;1.43;;
13991;SDS011;7070;53.586;9.692;2023-07-16T02:09:55;1.60;;;1.27;;
13991;SDS011;7070;53.586;9.692;2023-07-16T02:12:22;3.43;;;1.50;;
13991;SDS011;7070;53.586;9.692;2023-07-16T02:14:49;4.23;;;1.50;;
13991;SDS011;7070;53.586;9.692;2023-07-16T02:17:16;2.13;;;1.40;;
13991;SDS011;7070;53.586;9.692;2023-07-16T02:19:42;5.27;;;1.60;;
13991;SDS011;7070;53.586;9.692;2023-07-16T02:22:11;3.73;;;1.67;;
13991;SDS011;7070;53.586;9.692;2023-07-16T02:24:37;2.90;;;1.10;;
13991;SDS011;7070;53.586;9.692;2023-07-16T02:27:05;3.10;;;1.63;;
13991;SDS011;7070;53.586;9.692;2023-07-16T02:29:32;2.17;;;1.60;;
13991;SDS011;7070;53.586;9.692;2023-07-16T02:32:00;2.83;;;1.20;;
13991;SDS011;7070;53.586;9.692;2023-07-16T02:34:26;1.83;;;1.50;;
13991;SDS011;7070;53.586;9.692;2023-07-16T02:36:53;2.27;;;1.33;;
13991;SDS011;7070;53.586;9.692;2023-07-16T02:39:21;6.60;;;1.40;;
13991;SDS011;7070;53.586;9.692;2023-07-16T02:41:48;3.00;;;1.27;;
13991;SDS011;7070;53.586;9.692;2023-07-16T02:44:15;1.80;;;1.50;;
13991;SDS011;7070;53.586;9.692;2023-07-16T02:46:42;2.60;;;1.10;;
13991;SDS011;7070;53.586;9.692;2023-07-16T02:49:09;2.67;;;1.40;;
13991;SDS011;7070;53.586;9.692;2023-07-16T02:51:36;3.37;;;1.50;;
13991;SDS011;7070;53.586;9.692;2023-07-16T02:54:02;6.30;;;1.00;;
13991;SDS011;7070;53.586;9.692;2023-07-16T02:56:31;3.43;;;1.60;;
13991;SDS011;7070;53.586;9.692;2023-07-16T02:58:57;2.67;;;1.93;;
13991;SDS011;7070;53.586;9.692;2023-07-16T03:01:24;2.47;;;1.50;;
13991;SDS011;7070;53.586;9.692;2023-07-16T03:03:51;2.13;;;1.53;;
13991;SDS011;7070;53.586;9.692;2023-07-16T03:06:18;2.57;;;1.50;;
13991;SDS011;7070;53.586;9.692;2023-07-16T03:08:45;6.70;;;1.63;;
13991;SDS011;7070;53.586;9.692;2023-07-16T03:11:12;2.60;;;1.50;;
13991;SDS011;7070;53.586;9.692;2023-07-16T03:13:40;3.17;;;1.30;;
13991;SDS011;7070;53.586;9.692;2023-07-16T03:16:07;2.80;;;1.33;;
13991;SDS011;7070;53.586;9.692;2023-07-16T03:18:34;3.70;;;1.70;;
13991;SDS011;7070;53.586;9.692;2023-07-16T03:21:00;2.10;;;1.60;;
13991;SDS011;7070;53.586;9.692;2023-07-16T03:23:27;2.83;;;1.73;;
13991;SDS011;7070;53.586;9.692;2023-07-16T03:25:54;3.70;;;1.43;;
13991;SDS011;7070;53.586;9.692;2023-07-16T03:28:21;3.03;;;1.90;;
13991;SDS011;7070;53.586;9.692;2023-07-16T03:30:49;3.77;;;1.47;;
13991;SDS011;7070;53.586;9.692;2023-07-16T03:33:17;2.73;;;1.43;;
13991;SDS011;7070;53.586;9.692;2023-07-16T03:35:44;2.43;;;1.63;;
13991;SDS011;7070;53.586;9.692;2023-07-16T03:38:11;2.30;;;1.47;;
13991;SDS011;7070;53.586;9.692;2023-07-16T03:40:39;3.43;;;2.07;;
13991;SDS011;7070;53.586;9.692;2023-07-16T03:43:08;2.13;;;1.17;;
13991;SDS011;7070;53.586;9.692;2023-07-16T03:45:35;2.53;;;1.40;;
13991;SDS011;7070;53.586;9.692;2023-07-16T03:48:03;1.70;;;1.50;;
13991;SDS011;7070;53.586;9.692;2023-07-16T03:50:30;4.93;;;1.63;;
13991;SDS011;7070;53.586;9.692;2023-07-16T03:52:57;2.87;;;1.50;;
13991;SDS011;7070;53.586;9.692;2023-07-16T03:55:24;3.93;;;1.57;;
13991;SDS011;7070;53.586;9.692;2023-07-16T03:57:52;2.37;;;1.70;;
13991;SDS011;7070;53.586;9.692;2023-07-16T04:00:18;4.07;;;1.60;;
13991;SDS011;7070;53.586;9.692;2023-07-16T04:02:45;1.87;;;1.57;;
13991;SDS011;7070;53.586;9.692;2023-07-16T04:05:13;2.70;;;1.90;;
13991;SDS011;7070;53.586;9.692;2023-07-16T04:07:40;3.20;;;1.73;;
13991;SDS011;7070;53.586;9.692;2023-07-16T04:10:07;1.57;;;1.40;;
13991;SDS011;7070;53.586;9.692;2023-07-16T04:12:34;4.40;;;1.77;;
13991;SDS011;7070;53.586;9.692;2023-07-16T04:15:06;2.50;;;1.80;;
13991;SDS011;7070;53.586;9.692;2023-07-16T04:17:33;4.57;;;1.80;;
13991;SDS011;7070;53.586;9.692;2023-07-16T04:20:00;5.07;;;1.80;;
13991;SDS011;7070;53.586;9.692;2023-07-16T04:22:29;4.07;;;2.03;;
13991;SDS011;7070;53.586;9.692;2023-07-16T04:24:56;3.33;;;1.80;;
13991;SDS011;7070;53.586;9.692;2023-07-16T04:27:23;5.57;;;2.20;;
13991;SDS011;7070;53.586;9.692;2023-07-16T04:29:49;3.23;;;1.93;;
13991;SDS011;7070;53.586;9.692;2023-07-16T04:32:17;5.00;;;1.97;;
13991;SDS011;7070;53.586;9.692;2023-07-16T04:34:44;3.83;;;1.80;;
13991;SDS011;7070;53.586;9.692;2023-07-16T04:37:10;4.50;;;1.90;;
13991;SDS011;7070;53.586;9.692;2023-07-16T04:39:39;2.87;;;1.63;;
13991;SDS011;7070;53.586;9.692;2023-07-16T04:42:05;2.83;;;1.50;;
13991;SDS011;7070;53.586;9.692;2023-07-16T04:44:32;4.33;;;1.60;;
13991;SDS011;7070;53.586;9.692;2023-07-16T04:46:59;1.93;;;1.73;;
13991;SDS011;7070;53.586;9.692;2023-07-16T04:49:26;2.97;;;2.07;;
13991;SDS011;7070;53.586;9.692;2023-07-16T04:51:53;2.60;;;2.10;;
13991;SDS011;7070;53.586;9.692;2023-07-16T04:54:20;2.13;;;1.53;;
13991;SDS011;7070;53.586;9.692;2023-07-16T04:56:48;2.47;;;1.73;;
13991;SDS011;7070;53.586;9.692;2023-07-16T04:59:15;8.90;;;2.03;;
13991;SDS011;7070;53.586;9.692;2023-07-16T05:01:42;5.97;;;2.50;;
13991;SDS011;7070;53.586;9.692;2023-07-16T05:04:09;4.37;;;1.93;;
13991;SDS011;7070;53.586;9.692;2023-07-16T05:06:36;5.20;;;2.03;;
13991;SDS011;7070;53.586;9.692;2023-07-16T05:09:02;3.33;;;2.40;;
13991;SDS011;7070;53.586;9.692;2023-07-16T05:11:29;2.57;;;1.90;;
13991;SDS011;7070;53.586;9.692;2023-07-16T05:13:59;3.50;;;2.03;;
13991;SDS011;7070;53.586;9.692;2023-07-16T05:16:26;4.30;;;2.10;;
13991;SDS011;7070;53.586;9.692;2023-07-16T05:18:53;3.97;;;1.67;;
13991;SDS011;7070;53.586;9.692;2023-07-16T05:21:20;3.17;;;1.73;;
13991;SDS011;7070;53.586;9.692;2023-07-16T05:23:47;6.00;;;2.00;;
13991;SDS011;7070;53.586;9.692;2023-07-16T05:26:14;3.10;;;2.20;;
13991;SDS011;7070;53.586;9.692;2023-07-16T05:28:40;4.20;;;1.87;;
13991;SDS011;7070;53.586;9.692;2023-07-16T05:31:09;2.37;;;1.80;;
13991;SDS011;7070;53.586;9.692;2023-07-16T05:33:36;2.80;;;1.90;;
13991;SDS011;7070;53.586;9.692;2023-07-16T05:36:03;4.37;;;2.10;;
13991;SDS011;7070;53.586;9.692;2023-07-16T05:38:30;3.77;;;1.77;;
13991;SDS011;7070;53.586;9.692;2023-07-16T05:40:59;8.47;;;2.37;;
13991;SDS011;7070;53.586;9.692;2023-07-16T05:43:27;2.53;;;2.00;;
13991;SDS011;7070;53.586;9.692;2023-07-16T05:45:54;5.43;;;2.13;;
13991;SDS011;7070;53.586;9.692;2023-07-16T05:48:23;3.57;;;1.97;;
13991;SDS011;7070;53.586;9.692;2023-07-16T05:50:50;4.53;;;1.87;;
13991;SDS011;7070;53.586;9.692;2023-07-16T05:53:17;7.10;;;1.53;;
13991;SDS011;7070;53.586;9.692;2023-07-16T05:55:43;6.57;;;2.27;;
13991;SDS011;7070;53.586;9.692;2023-07-16T05:58:10;7.17;;;2.10;;
13991;SDS011;7070;53.586;9.692;2023-07-16T06:00:37;6.17;;;1.93;;
13991;SDS011;7070;53.586;9.692;2023-07-16T06:03:04;2.40;;;1.70;;
13991;SDS011;7070;53.586;9.692;2023-07-16T06:05:32;3.73;;;1.60;;
13991;SDS011;7070;53.586;9.692;2023-07-16T06:08:02;5.33;;;1.60;;
13991;SDS011;7070;53.586;9.692;2023-07-16T06:10:29;6.37;;;2.10;;
13991;SDS011;7070;53.586;9.692;2023-07-16T06:12:55;3.93;;;1.80;;
13991;SDS011;7070;53.586;9.692;2023-07-16T06:15:22;4.77;;;1.83;;
13991;SDS011;7070;53.586;9.692;2023-07-16T06:17:49;6.50;;;1.97;;
13991;SDS011;7070;53.586;9.692;2023-07-16T06:20:17;2.30;;;1.53;;
13991;SDS011;7070;53.586;9.692;2023-07-16T06:22:45;5.30;;;2.10;;
13991;SDS011;7070;53.586;9.692;2023-07-16T06:25:12;6.37;;;2.03;;
13991;SDS011;7070;53.586;9.692;2023-07-16T06:27:39;5.90;;;2.20;;
13991;SDS011;7070;53.586;9.692;2023-07-16T06:30:06;7.07;;;1.73;;
13991;SDS011;7070;53.586;9.692;2023-07-16T06:32:33;3.07;;;2.10;;
13991;SDS011;7070;53.586;9.692;2023-07-16T06:35:00;5.23;;;1.80;;
13991;SDS011;7070;53.586;9.692;2023-07-16T06:37:27;5.37;;;1.80;;
13991;SDS011;7070;53.586;9.692;2023-07-16T06:39:55;2.90;;;1.80;;
13991;SDS011;7070;53.586;9.692;2023-07-16T06:42:23;5.93;;;2.17;;
13991;SDS011;7070;53.586;9.692;2023-07-16T06:44:50;4.03;;;2.20;;
13991;SDS011;7070;53.586;9.692;2023-07-16T06:47:16;3.37;;;2.40;;
13991;SDS011;7070;53.586;9.692;2023-07-16T06:49:44;5.33;;;2.43;;
13991;SDS011;7070;53.586;9.692;2023-07-16T06:52:18;5.43;;;2.43;;
13991;SDS011;7070;53.586;9.692;2023-07-16T06:54:45;4.40;;;1.77;;
13991;SDS011;7070;53.586;9.692;2023-07-16T06:57:13;8.77;;;2.17;;
13991;SDS011;7070;53.586;9.692;2023-07-16T06:59:40;7.73;;;2.57;;
13991;SDS011;7070;53.586;9.692;2023-07-16T07:02:07;5.57;;;1.93;;
13991;SDS011;7070;53.586;9.692;2023-07-16T07:04:34;4.80;;;2.27;;
13991;SDS011;7070;53.586;9.692;2023-07-16T07:07:01;6.10;;;2.00;;
13991;SDS011;7070;53.586;9.692;2023-07-16T07:09:27;8.70;;;2.60;;
13991;SDS011;7070;53.586;9.692;2023-07-16T07:11:54;5.67;;;2.40;;
13991;SDS011;7070;53.586;9.692;2023-07-16T07:14:23;3.97;;;2.03;;
13991;SDS011;7070;53.586;9.692;2023-07-16T07:16:49;7.03;;;2.37;;
13991;SDS011;7070;53.586;9.692;2023-07-16T07:19:16;4.57;;;2.43;;
13991;SDS011;7070;53.586;9.692;2023-07-16T07:21:43;7.80;;;2.60;;
13991;SDS011;7070;53.586;9.692;2023-07-16T07:24:10;8.30;;;2.20;;
13991;SDS011;7070;53.586;9.692;2023-07-16T07:26:37;11.47;;;2.90;;
13991;SDS011;7070;53.586;9.692;2023-07-16T07:29:04;9.90;;;2.17;;
13991;SDS011;7070;53.586;9.692;2023-07-16T07:31:32;5.47;;;2.47;;
13991;SDS011;7070;53.586;9.692;2023-07-16T07:33:59;3.47;;;2.10;;
13991;SDS011;7070;53.586;9.692;2023-07-16T07:36:26;6.97;;;2.57;;
13991;SDS011;7070;53.586;9.692;2023-07-16T07:38:53;6.47;;;2.47;;
13991;SDS011;7070;53.586;9.692;2023-07-16T07:41:20;4.90;;;2.30;;
13991;SDS011;7070;53.586;9.692;2023-07-16T07:43:46;3.83;;;2.03;;
13991;SDS011;7070;53.586;9.692;2023-07-16T07:46:13;4.30;;;1.90;;
13991;SDS011;7070;53.586;9.692;2023-07-16T07:48:41;3.50;;;2.17;;
13991;SDS011;7070;53.586;9.692;2023-07-16T07:51:08;6.67;;;2.73;;
13991;SDS011;7070;53.586;9.692;2023-07-16T07:53:35;7.07;;;2.13;;
13991;SDS011;7070;53.586;9.692;2023-07-16T07:56:02;3.40;;;1.83;;
13991;SDS011;7070;53.586;9.692;2023-07-16T07:58:29;8.27;;;1.97;;
13991;SDS011;7070;53.586;9.692;2023-07-16T08:00:56;2.73;;;1.73;;
13991;SDS011;7070;53.586;9.692;2023-07-16T08:03:29;2.60;;;1.67;;
13991;SDS011;7070;53.586;9.692;2023-07-16T08:05:57;5.27;;;1.40;;
13991;SDS011;7070;53.586;9.692;2023-07-16T08:08:24;3.33;;;1.73;;
13991;SDS011;7070;53.586;9.692;2023-07-16T08:10:51;2.57;;;1.57;;
13991;SDS011;7070;53.586;9.692;2023-07-16T08:13:17;1.83;;;1.27;;
13991;SDS011;7070;53.586;9.692;2023-07-16T08:15:44;5.23;;;1.53;;
13991;SDS011;7070;53.586;9.692;2023-07-16T08:18:12;6.23;;;1.83;;
13991;SDS011;7070;53.586;9.692;2023-07-16T08:20:39;2.47;;;1.23;;
13991;SDS011;7070;53.586;9.692;2023-07-16T08:23:08;2.30;;;1.60;;
13991;SDS011;7070;53.586;9.692;2023-07-16T08:25:35;3.67;;;1.30;;
13991;SDS011;7070;53.586;9.692;2023-07-16T08:28:02;3.77;;;1.63;;
13991;SDS011;7070;53.586;9.692;2023-07-16T08:30:29;2.43;;;1.20;;
13991;SDS011;7070;53.586;9.692;2023-07-16T08:32:56;2.10;;;1.70;;
13991;SDS011;7070;53.586;9.692;2023-07-16T08:35:22;4.50;;;2.13;;
13991;SDS011;7070;53.586;9.692;2023-07-16T08:37:49;3.30;;;1.50;;
13991;SDS011;7070;53.586;9.692;2023-07-16T08:40:17;4.00;;;1.90;;
13991;SDS011;7070;53.586;9.692;2023-07-16T08:42:46;5.80;;;1.70;;
13991;SDS011;7070;53.586;9.692;2023-07-16T08:45:15;2.37;;;1.50;;
13991;SDS011;7070;53.586;9.692;2023-07-16T08:47:42;3.03;;;1.47;;
13991;SDS011;7070;53.586;9.692;2023-07-16T08:50:09;4.33;;;2.10;;
13991;SDS011;7070;53.586;9.692;2023-07-16T08:52:37;2.17;;;1.83;;
13991;SDS011;7070;53.586;9.692;2023-07-16T08:55:06;6.47;;;1.83;;
13991;SDS011;7070;53.586;9.692;2023-07-16T08:57:35;4.53;;;1.60;;
13991;SDS011;7070;53.586;9.692;2023-07-16T09:00:03;2.67;;;2.20;;
13991;SDS011;7070;53.586;9.692;2023-07-16T09:02:32;2.87;;;2.13;;
13991;SDS011;7070;53.586;9.692;2023-07-16T09:04:58;3.30;;;2.23;;
13991;SDS011;7070;53.586;9.692;2023-07-16T09:07:26;3.80;;;2.77;;
13991;SDS011;7070;53.586;9.692;2023-07-16T09:09:56;4.13;;;2.80;;
13991;SDS011;7070;53.586;9.692;2023-07-16T09:12:26;4.60;;;2.80;;
13991;SDS011;7070;53.586;9.692;2023-07-16T09:14:56;9.93;;;2.30;;
13991;SDS011;7070;53.586;9.692;2023-07-16T09:17:23;5.70;;;2.60;;
13991;SDS011;7070;53.586;9.692;2023-07-16T09:19:51;3.27;;;2.23;;
13991;SDS011;7070;53.586;9.692;2023-07-16T09:22:18;4.67;;;2.80;;
13991;SDS011;7070;53.586;9.692;2023-07-16T09:24:45;6.40;;;2.93;;
13991;SDS011;7070;53.586;9.692;2023-07-16T09:27:12;6.47;;;2.27;;
13991;SDS011;7070;53.586;9.692;2023-07-16T09:29:40;5.70;;;2.15;;
13991;SDS011;7070;53.586;9.692;2023-07-16T09:32:08;5.33;;;2.67;;
13991;SDS011;7070;53.586;9.692;2023-07-16T09:34:35;8.70;;;2.23;;
13991;SDS011;7070;53.586;9.692;2023-07-16T09:37:02;6.10;;;1.90;;
13991;SDS011;7070;53.586;9.692;2023-07-16T09:39:30;4.77;;;2.50;;
13991;SDS011;7070;53.586;9.692;2023-07-16T09:41:58;6.03;;;2.50;;
13991;SDS011;7070;53.586;9.692;2023-07-16T09:44:25;2.80;;;1.73;;
13991;SDS011;7070;53.586;9.692;2023-07-16T09:46:53;6.17;;;1.83;;
13991;SDS011;7070;53.586;9.692;2023-07-16T09:49:21;2.65;;;1.85;;
13991;SDS011;7070;53.586;9.692;2023-07-16T09:51:48;4.87;;;2.30;;
13991;SDS011;7070;53.586;9.692;2023-07-16T09:54:18;2.67;;;2.15;;
13991;SDS011;7070;53.586;9.692;2023-07-16T09:56:47;4.82;;;1.92;;
13991;SDS011;7070;53.586;9.692;2023-07-16T09:59:17;4.35;;;1.90;;
13991;SDS011;7070;53.586;9.692;2023-07-16T10:01:48;2.92;;;1.90;;
13991;SDS011;7070;53.586;9.692;2023-07-16T10:04:16;5.85;;;1.85;;
13991;SDS011;7070;53.586;9.692;2023-07-16T10:06:52;6.10;;;1.70;;
13991;SDS011;7070;53.586;9.692;2023-07-16T10:09:36;4.47;;;1.65;;
13991;SDS011;7070;53.586;9.692;2023-07-16T10:12:11;3.45;;;1.58;;
13991;SDS011;7070;53.586;9.692;2023-07-16T10:14:40;6.20;;;1.80;;
13991;SDS011;7070;53.586;9.692;2023-07-16T10:17:11;6.55;;;1.30;;
13991;SDS011;7070;53.586;9.692;2023-07-16T10:19:51;3.67;;;1.50;;
13991;SDS011;7070;53.586;9.692;2023-07-16T10:22:36;2.95;;;1.77;;
13991;SDS011;7070;53.586;9.692;2023-07-16T10:25:07;4.35;;;1.60;;
13991;SDS011;7070;53.586;9.692;2023-07-16T10:27:35;3.15;;;1.70;;
13991;SDS011;7070;53.586;9.692;2023-07-16T10:30:03;2.70;;;1.70;;
13991;SDS011;7070;53.586;9.692;2023-07-16T10:32:31;4.63;;;1.50;;
13991;SDS011;7070;53.586;9.692;2023-07-16T10:34:58;3.38;;;1.42;;
13991;SDS011;7070;53.586;9.692;2023-07-16T10:37:26;5.35;;;1.42;;
13991;SDS011;7070;53.586;9.692;2023-07-16T10:39:55;7.82;;;1.80;;
13991;SDS011;7070;53.586;9.692;2023-07-16T10:42:23;3.88;;;1.77;;
13991;SDS011;7070;53.586;9.692;2023-07-16T10:44:51;3.80;;;1.60;;
13991;SDS011;7070;53.586;9.692;2023-07-16T10:47:19;3.22;;;1.55;;
13991;SDS011;7070;53.586;9.692;2023-07-16T10:49:48;2.33;;;1.40;;
13991;SDS011;7070;53.586;9.692;2023-07-16T10:52:17;6.10;;;2.05;;
13991;SDS011;7070;53.586;9.692;2023-07-16T10:54:44;5.90;;;2.03;;
13991;SDS011;7070;53.586;9.692;2023-07-16T10:57:12;3.20;;;1.50;;
13991;SDS011;7070;53.586;9.692;2023-07-16T10:59:41;3.85;;;1.92;;
13991;SDS011;7070;53.586;9.692;2023-07-16T11:02:10;2.72;;;1.60;;
13991;SDS011;7070;53.586;9.692;2023-07-16T11:04:38;3.65;;;1.67;;
13991;SDS011;7070;53.586;9.692;2023-07-16T11:07:06;4.43;;;1.75;;
13991;SDS011;7070;53.586;9.692;2023-07-16T11:09:34;6.05;;;2.30;;
13991;SDS011;7070;53.586;9.692;2023-07-16T11:12:06;5.70;;;1.88;;
13991;SDS011;7070;53.586;9.692;2023-07-16T11:14:35;1.80;;;1.08;;
13991;SDS011;7070;53.586;9.692;2023-07-16T11:17:05;3.50;;;1.77;;
13991;SDS011;7070;53.586;9.692;2023-07-16T11:19:33;1.83;;;1.33;;
13991;SDS011;7070;53.586;9.692;2023-07-16T11:22:01;6.28;;;1.60;;
13991;SDS011;7070;53.586;9.692;2023-07-16T11:24:35;2.80;;;1.65;;
13991;SDS011;7070;53.586;9.692;2023-07-16T11:27:04;5.25;;;2.00;;
13991;SDS011;7070;53.586;9.692;2023-07-16T11:29:36;2.55;;;1.40;;
13991;SDS011;7070;53.586;9.692;2023-07-16T11:32:04;3.90;;;1.60;;
13991;SDS011;7070;53.586;9.692;2023-07-16T11:34:32;3.83;;;1.83;;
13991;SDS011;7070;53.586;9.692;2023-07-16T11:37:08;2.80;;;1.45;;
13991;SDS011;7070;53.586;9.692;2023-07-16T11:39:36;3.03;;;1.42;;
13991;SDS011;7070;53.586;9.692;2023-07-16T11:42:03;1.92;;;1.38;;
13991;SDS011;7070;53.586;9.692;2023-07-16T11:44:34;4.90;;;1.45;;
13991;SDS011;7070;53.586;9.692;2023-07-16T11:47:03;1.65;;;1.15;;
13991;SDS011;7070;53.586;9.692;2023-07-16T11:49:30;3.15;;;1.52;;
13991;SDS011;7070;53.586;9.692;2023-07-16T11:51:57;2.20;;;1.35;;
13991;SDS011;7070;53.586;9.692;2023-07-16T11:54:24;3.20;;;1.30;;
13991;SDS011;7070;53.586;9.692;2023-07-16T11:56:51;2.50;;;1.27;;
13991;SDS011;7070;53.586;9.692;2023-07-16T11:59:18;7.57;;;1.80;;
13991;SDS011;7070;53.586;9.692;2023-07-16T12:01:46;2.78;;;2.25;;
13991;SDS011;7070;53.586;9.692;2023-07-16T12:04:17;3.22;;;1.55;;
13991;SDS011;7070;53.586;9.692;2023-07-16T12:06:44;3.67;;;1.85;;
13991;SDS011;7070;53.586;9.692;2023-07-16T12:09:11;3.17;;;1.58;;
13991;SDS011;7070;53.586;9.692;2023-07-16T12:11:38;3.78;;;1.52;;
13991;SDS011;7070;53.586;9.692;2023-07-16T12:14:05;2.28;;;1.50;;
13991;SDS011;7070;53.586;9.692;2023-07-16T12:16:32;4.05;;;1.30;;
13991;SDS011;7070;53.586;9.692;2023-07-16T12:18:59;3.58;;;1.27;;
13991;SDS011;7070;53.586;9.692;2023-07-16T12:21:27;5.50;;;1.27;;
13991;SDS011;7070;53.586;9.692;2023-07-16T12:23:54;2.60;;;1.13;;
13991;SDS011;7070;53.586;9.692;2023-07-16T12:26:21;2.13;;;1.30;;
13991;SDS011;7070;53.586;9.692;2023-07-16T12:28:48;4.10;;;1.08;;
13991;SDS011;7070;53.586;9.692;2023-07-16T12:31:15;2.22;;;1.20;;
13991;SDS011;7070;53.586;9.692;2023-07-16T12:33:42;3.13;;;1.52;;
13991;SDS011;7070;53.586;9.692;2023-07-16T12:36:09;3.08;;;1.40;;
13991;SDS011;7070;53.586;9.692;2023-07-16T12:38:37;3.80;;;2.08;;
13991;SDS011;7070;53.586;9.692;2023-07-16T12:41:04;3.58;;;1.50;;
13991;SDS011;7070;53.586;9.692;2023-07-16T12:43:31;1.85;;;1.00;;
13991;SDS011;7070;53.586;9.692;2023-07-16T12:45:59;2.85;;;1.33;;
13991;SDS011;7070;53.586;9.692;2023-07-16T12:48:27;1.67;;;1.05;;
13991;SDS011;7070;53.586;9.692;2023-07-16T12:50:54;2.60;;;1.40;;
13991;SDS011;7070;53.586;9.692;2023-07-16T12:53:21;3.65;;;1.38;;
13991;SDS011;7070;53.586;9.692;2023-07-16T12:55:50;2.38;;;1.38;;
13991;SDS011;7070;53.586;9.692;2023-07-16T12:58:17;2.30;;;1.00;;
13991;SDS011;7070;53.586;9.692;2023-07-16T13:00:44;2.78;;;1.23;;
13991;SDS011;7070;53.586;9.692;2023-07-16T13:03:10;2.05;;;1.30;;
13991;SDS011;7070;53.586;9.692;2023-07-16T13:05:41;2.13;;;1.45;;
13991;SDS011;7070;53.586;9.692;2023-07-16T13:08:08;2.17;;;1.17;;
13991;SDS011;7070;53.586;9.692;2023-07-16T13:10:35;2.70;;;1.10;;
13991;SDS011;7070;53.586;9.692;2023-07-16T13:13:04;5.57;;;1.55;;
13991;SDS011;7070;53.586;9.692;2023-07-16T13:15:33;3.83;;;1.30;;
13991;SDS011;7070;53.586;9.692;2023-07-16T13:17:59;3.92;;;1.40;;
13991;SDS011;7070;53.586;9.692;2023-07-16T13:20:26;2.28;;;1.40;;
13991;SDS011;7070;53.586;9.692;2023-07-16T13:22:54;3.65;;;1.27;;
13991;SDS011;7070;53.586;9.692;2023-07-16T13:25:21;2.00;;;1.30;;
13991;SDS011;7070;53.586;9.692;2023-07-16T13:27:48;1.83;;;1.08;;
13991;SDS011;7070;53.586;9.692;2023-07-16T13:30:17;2.15;;;1.17;;
13991;SDS011;7070;53.586;9.692;2023-07-16T13:32:44;2.90;;;1.20;;
13991;SDS011;7070;53.586;9.692;2023-07-16T13:35:11;4.03;;;1.60;;
13991;SDS011;7070;53.586;9.692;2023-07-16T13:37:38;1.65;;;1.17;;
13991;SDS011;7070;53.586;9.692;2023-07-16T13:40:05;2.13;;;1.30;;
13991;SDS011;7070;53.586;9.692;2023-07-16T13:42:33;2.72;;;1.20;;
13991;SDS011;7070;53.586;9.692;2023-07-16T13:45:00;2.70;;;1.38;;
13991;SDS011;7070;53.586;9.692;2023-07-16T13:47:29;8.02;;;1.48;;
13991;SDS011;7070;53.586;9.692;2023-07-16T13:49:55;3.05;;;1.67;;
13991;SDS011;7070;53.586;9.692;2023-07-16T13:52:22;3.45;;;1.20;;
13991;SDS011;7070;53.586;9.692;2023-07-16T13:54:49;1.50;;;1.00;;
13991;SDS011;7070;53.586;9.692;2023-07-16T13:57:16;4.45;;;1.70;;
13991;SDS011;7070;53.586;9.692;2023-07-16T13:59:43;2.88;;;1.40;;
13991;SDS011;7070;53.586;9.692;2023-07-16T14:02:10;1.80;;;1.27;;
13991;SDS011;7070;53.586;9.692;2023-07-16T14:04:38;2.30;;;1.70;;
13991;SDS011;7070;53.586;9.692;2023-07-16T14:07:05;5.22;;;1.23;;
13991;SDS011;7070;53.586;9.692;2023-07-16T14:09:32;6.85;;;1.50;;
13991;SDS011;7070;53.586;9.692;2023-07-16T14:11:58;2.53;;;1.35;;
13991;SDS011;7070;53.586;9.692;2023-07-16T14:14:25;1.65;;;1.00;;
13991;SDS011;7070;53.586;9.692;2023-07-16T14:16:53;2.88;;;1.33;;
13991;SDS011;7070;53.586;9.692;2023-07-16T14:19:20;3.40;;;1.52;;
13991;SDS011;7070;53.586;9.692;2023-07-16T14:21:49;2.00;;;1.40;;
13991;SDS011;7070;53.586;9.692;2023-07-16T14:24:15;3.10;;;1.40;;
13991;SDS011;7070;53.586;9.692;2023-07-16T14:26:42;2.85;;;1.38;;
13991;SDS011;7070;53.586;9.692;2023-07-16T14:29:09;2.10;;;1.42;;
13991;SDS011;7070;53.586;9.692;2023-07-16T14:31:37;3.28;;;1.17;;
13991;SDS011;7070;53.586;9.692;2023-07-16T14:34:04;4.57;;;1.40;;
13991;SDS011;7070;53.586;9.692;2023-07-16T14:36:31;4.47;;;1.63;;
13991;SDS011;7070;53.586;9.692;2023-07-16T14:38:59;3.47;;;1.52;;
13991;SDS011;7070;53.586;9.692;2023-07-16T14:41:25;5.70;;;1.50;;
13991;SDS011;7070;53.586;9.692;2023-07-16T14:43:52;4.68;;;1.60;;
13991;SDS011;7070;53.586;9.692;2023-07-16T14:46:19;3.42;;;1.27;;
13991;SDS011;7070;53.586;9.692;2023-07-16T14:48:46;2.97;;;1.00;;
13991;SDS011;7070;53.586;9.692;2023-07-16T14:51:13;2.92;;;1.30;;
13991;SDS011;7070;53.586;9.692;2023-07-16T14:53:40;3.33;;;1.38;;
13991;SDS011;7070;53.586;9.692;2023-07-16T14:56:08;2.58;;;1.25;;
13991;SDS011;7070;53.586;9.692;2023-07-16T14:58:35;4.65;;;1.70;;
13991;SDS011;7070;53.586;9.692;2023-07-16T15:01:02;3.65;;;1.60;;
13991;SDS011;7070;53.586;9.692;2023-07-16T15:03:32;3.50;;;1.70;;
13991;SDS011;7070;53.586;9.692;2023-07-16T15:06:00;2.83;;;1.38;;